AirNav   Air Wisconsin Up To $57,000 Bonus
 
 610 users online  

0XS9 French Field Airport
Bullard, Texas, USA

GOING TO BULLARD?


FAA INFORMATION EFFECTIVE 08 OCTOBER 2020

Location

FAA Identifier: 0XS9
Lat/Long: 32-08-02.5500N 095-20-22.5000W
32-08.042500N 095-20.375000W
32.1340417,-95.3395833
(estimated)
Elevation: 540 ft. / 165 m (estimated)
From city: 2 miles W of BULLARD, TX
Time zone: UTC -5 (UTC -6 during Standard Time)
Zip code: 75757

Airport Operations

Airport use: Private use. Permission required prior to landing
Activation date: 05/2008
Control tower: no
ARTCC: FORT WORTH CENTER
FSS: FORT WORTH FLIGHT SERVICE STATION
Attendance: DAWN-DUSK
Wind indicator: yes
Segmented circle: no

Airport Communications

WX ASOS at TYR (14 nm N): PHONE 903-535-9105
WX AWOS-3 at JSO (17 nm S): 119.075 (903-586-0124)

Nearby radio navigation aids

VOR radial/distance  VOR name  Freq  Var
FZTr064/10.4FRANKSTON VOR/DME111.4006E
TYRr160/13.7TYLER VOR/DME114.2006E
GGGr233/34.3GREGG COUNTY VORTAC112.9007E

 
NDB name  Hdg/Dist  Freq  Var  ID
PALESTINE037/28.137504EPSN .--. ... -.
AMBASSADOR196/29.440407EABG .- -... --.
CROSSROADS074/31.721508ECSZ -.-. ... --..

Airport Services

Runway Information

Runway 17/35

Dimensions: 1200 x 100 ft. / 366 x 30 m
Surface: turf
RUNWAY 17  RUNWAY 35
Traffic pattern: rightleft
Obstructions: none60 ft. trees, 50 ft. from runway

Airport Ownership and Management from official FAA records

Ownership: Privately-owned
Owner: DAVID W. FRENCH
821 FM 344 W
BULLARD, TX 75757
Phone (903) 894-4061
Manager: DAVID W. FRENCH
821 FM 344 W
BULLARD, TX 75757
Phone (903) 894-4061

Airport Operational Statistics

Aircraft based on the field: 1
Single engine airplanes: 1
    

Additional Remarks

FOR CD CTC FORT WORTH ARTCC AT 817-858-7584.

Instrument Procedures

There are no published instrument procedures at 0XS9.

Some nearby airports with instrument procedures:

KTYR - Tyler Pounds Regional Airport (14 nm N)
KJSO - Cherokee County Airport (17 nm S)
KRFI - Rusk County Airport (25 nm E)
F44 - Athens Municipal Airport (25 nm W)
KPSN - Palestine Municipal Airport (28 nm SW)
 
Loc | Ops | Rwys | IFR | FBO | Links
Com | Nav | Svcs | Stats | Notes
Aerial photo
No photo
 
Sectional chart

 
Airport distance calculator
Flying to French Field Airport? Find the distance to fly.

From to 0XS9

Sunrise and sunset
Times for 19-Oct-2020
 Local
(UTC-5)
 Zulu
(UTC)
Morning civil twilight07:0512:05
Sunrise07:3012:30
Sunset18:4323:43
Evening civil twilight19:0800:08

Current date and time
Zulu (UTC)  20-Oct-2020 04:38:00
Local (UTC-5)  19-Oct-2020 23:38:00
 
METAR
KTYR 
14nm N 
200353Z AUTO 10007KT 10SM FEW038 SCT050 24/20 A3001 RMK AO2 SLP153 T02390200
KJSO 
17nm S 
200415Z AUTO 17004KT 10SM SCT045 23/21 A3005 RMK AO2 T02330218
KRFI 
25nm E 
200415Z AUTO 16006KT 10SM SCT049 OVC060 24/22 A3004 RMK AO2 T02350217
KF44 
25nm W 
200415Z AUTO 00000KT 10SM BKN026 OVC041 22/19 A3000 RMK AO2
KPSN 
28nm SW 
200415Z AUTO 14005KT 10SM BKN020 23/22 A3003 RMK AO2 T02380224
TAF
KTYR 
14nm N 
192132Z 1922/2018 33008KT P6SM FEW050 SCT070 FM200600 12007KT P6SM OVC015 FM200900 VRB03KT P6SM OVC009 FM201700 19010KT P6SM BKN015
NOTAMs
Click for the latest NOTAMs
NOTAMs are issued by the DoD/FAA and will open in a separate window not controlled by AirNav.

 

 
 

Would you like to see your business listed on this page?

 If your business provides an interesting product or service to pilots, flight crews, aircraft, or users of the French Field Airport, you should consider listing it here.  To start the listing process, click on the button below
 
Add a business
 

Other Pages about French Field Airport

Update a link
 
Copyright © AirNav, LLC. All rights reserved. Privacy Policy  Contact